AKJ584 VABB-OMAA
Flight info
| Callsign | AKJ584 |
|---|---|
| Flight time | N/A |
| Altitude | 34000 |
| Route | RAXET2AXBISET/27 BISET P574 TOTOX L555 TOLDA M628 TULBU P558 SODEX N563 NOBTO |
| Aircraft | B738/M-SDE2E3FGHIRWXY/LB1 |
Departure
| Time | N/A |
|---|---|
| Airport | Chhatrapati Shivaji Maharaj International Airport (VABB) |
Arrival
| Time | 2026-05-03 20:58 |
|---|---|
| Airport | Zayed International Airport (OMAA) |
| Time | Latitude | Longitude | Altitude | Speed | Heading |
|---|---|---|---|---|---|
| 2026-05-03 20:15 | 22.75128 | 58.29340 | 35864 ft | 428 kts | 286° |
| 2026-05-03 20:15 | 22.76740 | 58.23159 | 35864 ft | 428 kts | 286° |
| 2026-05-03 20:16 | 22.78357 | 58.16948 | 35867 ft | 428 kts | 286° |
| 2026-05-03 20:16 | 22.79970 | 58.10746 | 35866 ft | 427 kts | 286° |
| 2026-05-03 20:17 | 22.81576 | 58.04557 | 35878 ft | 427 kts | 286° |
| 2026-05-03 20:17 | 22.83183 | 57.98355 | 35877 ft | 428 kts | 286° |
| 2026-05-03 20:18 | 22.84783 | 57.92170 | 35874 ft | 427 kts | 286° |
| 2026-05-03 20:18 | 22.86387 | 57.85958 | 35889 ft | 427 kts | 286° |
| 2026-05-03 20:19 | 22.87989 | 57.79744 | 35897 ft | 427 kts | 286° |
| 2026-05-03 20:19 | 22.89579 | 57.73525 | 35888 ft | 428 kts | 285° |
| 2026-05-03 20:20 | 22.91119 | 57.67300 | 35904 ft | 428 kts | 285° |
| 2026-05-03 20:20 | 22.92646 | 57.61098 | 35903 ft | 428 kts | 285° |
| 2026-05-03 20:21 | 22.94184 | 57.54861 | 35913 ft | 428 kts | 285° |
| 2026-05-03 20:21 | 22.95594 | 57.49142 | 35914 ft | 428 kts | 285° |
| 2026-05-03 20:22 | 22.97122 | 57.42932 | 35919 ft | 428 kts | 285° |
| 2026-05-03 20:22 | 22.98660 | 57.36676 | 35914 ft | 428 kts | 285° |
| 2026-05-03 20:23 | 23.00055 | 57.30413 | 35907 ft | 429 kts | 279° |
| 2026-05-03 20:23 | 23.00341 | 57.23949 | 35915 ft | 429 kts | 272° |
| 2026-05-03 20:24 | 23.00446 | 57.17467 | 35916 ft | 429 kts | 272° |
| 2026-05-03 20:24 | 23.00590 | 57.11006 | 35901 ft | 429 kts | 273° |
| 2026-05-03 20:25 | 23.00748 | 57.04528 | 35907 ft | 429 kts | 273° |
| 2026-05-03 20:25 | 23.01457 | 56.98132 | 35915 ft | 427 kts | 285° |
| 2026-05-03 20:26 | 23.03630 | 56.92148 | 35919 ft | 427 kts | 296° |
| 2026-05-03 20:26 | 23.06390 | 56.86446 | 35909 ft | 428 kts | 297° |
| 2026-05-03 20:27 | 23.09168 | 56.80726 | 35897 ft | 428 kts | 297° |
| 2026-05-03 20:27 | 23.11431 | 56.76012 | 35895 ft | 428 kts | 296° |
| 2026-05-03 20:28 | 23.14650 | 56.69254 | 35889 ft | 428 kts | 296° |
| 2026-05-03 20:28 | 23.17374 | 56.63514 | 35884 ft | 429 kts | 296° |
| 2026-05-03 20:28 | 23.18747 | 56.60620 | 35745 ft | 431 kts | 296° |
| 2026-05-03 20:29 | 23.19662 | 56.58689 | 35362 ft | 436 kts | 296° |
| 2026-05-03 20:29 | 23.21524 | 56.54759 | 34561 ft | 435 kts | 296° |
| 2026-05-03 20:29 | 23.22440 | 56.52825 | 34272 ft | 432 kts | 296° |
| 2026-05-03 20:29 | 23.23798 | 56.49959 | 34126 ft | 421 kts | 296° |
| 2026-05-03 20:30 | 23.25114 | 56.47180 | 33997 ft | 409 kts | 296° |
| 2026-05-03 20:30 | 23.26411 | 56.44438 | 33894 ft | 398 kts | 296° |
| 2026-05-03 20:30 | 23.27651 | 56.41815 | 33843 ft | 385 kts | 296° |
| 2026-05-03 20:30 | 23.29249 | 56.38432 | 33512 ft | 376 kts | 296° |
| 2026-05-03 20:31 | 23.30043 | 56.36750 | 33237 ft | 375 kts | 296° |
| 2026-05-03 20:31 | 23.31239 | 56.34212 | 32573 ft | 378 kts | 296° |
| 2026-05-03 20:31 | 23.32473 | 56.31593 | 31289 ft | 398 kts | 297° |
| 2026-05-03 20:31 | 23.33755 | 56.28870 | 30282 ft | 412 kts | 297° |
| 2026-05-03 20:32 | 23.35070 | 56.26078 | 29721 ft | 411 kts | 297° |
| 2026-05-03 20:32 | 23.36351 | 56.23359 | 29283 ft | 405 kts | 297° |
| 2026-05-03 20:32 | 23.37636 | 56.20628 | 28796 ft | 401 kts | 297° |
| 2026-05-03 20:32 | 23.38904 | 56.17932 | 28276 ft | 398 kts | 297° |
| 2026-05-03 20:33 | 23.40149 | 56.15285 | 27740 ft | 396 kts | 297° |
| 2026-05-03 20:33 | 23.41402 | 56.12616 | 27212 ft | 394 kts | 297° |
| 2026-05-03 20:33 | 23.42650 | 56.09959 | 26703 ft | 391 kts | 297° |
| 2026-05-03 20:33 | 23.43871 | 56.07357 | 26218 ft | 389 kts | 297° |
| 2026-05-03 20:34 | 23.45106 | 56.04723 | 25734 ft | 387 kts | 297° |
| 2026-05-03 20:34 | 23.46328 | 56.02116 | 25251 ft | 385 kts | 297° |
| 2026-05-03 20:34 | 23.47547 | 55.99515 | 24781 ft | 384 kts | 297° |
| 2026-05-03 20:34 | 23.48751 | 55.96944 | 24323 ft | 382 kts | 297° |
| 2026-05-03 20:35 | 23.49961 | 55.94357 | 23863 ft | 381 kts | 297° |
| 2026-05-03 20:35 | 23.51154 | 55.91806 | 23325 ft | 381 kts | 297° |
| 2026-05-03 20:35 | 23.52364 | 55.89218 | 22778 ft | 380 kts | 298° |
| 2026-05-03 20:35 | 23.53548 | 55.86684 | 22304 ft | 377 kts | 298° |
| 2026-05-03 20:36 | 23.54867 | 55.84239 | 21837 ft | 374 kts | 306° |
| 2026-05-03 20:36 | 23.56517 | 55.82056 | 21389 ft | 371 kts | 314° |
| 2026-05-03 20:36 | 23.58343 | 55.80088 | 20957 ft | 368 kts | 315° |
| 2026-05-03 20:36 | 23.60173 | 55.78152 | 20512 ft | 365 kts | 316° |
| 2026-05-03 20:37 | 23.61992 | 55.76228 | 20083 ft | 363 kts | 316° |
| 2026-05-03 20:37 | 23.63775 | 55.74333 | 19655 ft | 360 kts | 316° |
| 2026-05-03 20:37 | 23.65564 | 55.72420 | 19216 ft | 359 kts | 316° |
| 2026-05-03 20:37 | 23.67341 | 55.70512 | 18784 ft | 357 kts | 315° |
| 2026-05-03 20:38 | 23.69077 | 55.68645 | 18356 ft | 356 kts | 316° |
| 2026-05-03 20:38 | 23.70860 | 55.66724 | 17885 ft | 354 kts | 316° |
| 2026-05-03 20:38 | 23.72624 | 55.64822 | 17432 ft | 352 kts | 316° |
| 2026-05-03 20:38 | 23.74349 | 55.62961 | 17000 ft | 349 kts | 316° |
| 2026-05-03 20:39 | 23.76063 | 55.61111 | 16579 ft | 346 kts | 316° |
| 2026-05-03 20:39 | 23.77783 | 55.59255 | 16161 ft | 344 kts | 316° |
| 2026-05-03 20:39 | 23.79466 | 55.57437 | 15750 ft | 341 kts | 316° |
| 2026-05-03 20:39 | 23.81139 | 55.55630 | 15345 ft | 339 kts | 316° |
| 2026-05-03 20:40 | 23.82719 | 55.53723 | 14926 ft | 337 kts | 308° |
| 2026-05-03 20:40 | 23.83992 | 55.51560 | 14509 ft | 337 kts | 298° |
| 2026-05-03 20:40 | 23.84961 | 55.49251 | 14112 ft | 336 kts | 296° |
| 2026-05-03 20:40 | 23.85892 | 55.46903 | 13696 ft | 335 kts | 296° |
| 2026-05-03 20:41 | 23.86827 | 55.44599 | 13237 ft | 334 kts | 296° |
| 2026-05-03 20:41 | 23.87771 | 55.42302 | 12812 ft | 331 kts | 296° |
| 2026-05-03 20:41 | 23.88713 | 55.40020 | 12404 ft | 329 kts | 296° |
| 2026-05-03 20:41 | 23.89655 | 55.37744 | 12198 ft | 320 kts | 296° |
| 2026-05-03 20:42 | 23.90551 | 55.35576 | 12053 ft | 310 kts | 296° |
| 2026-05-03 20:42 | 23.91419 | 55.33475 | 11922 ft | 300 kts | 296° |
| 2026-05-03 20:42 | 23.92272 | 55.31410 | 11783 ft | 291 kts | 296° |
| 2026-05-03 20:42 | 23.93143 | 55.29429 | 11588 ft | 285 kts | 298° |
| 2026-05-03 20:43 | 23.94038 | 55.27533 | 11308 ft | 282 kts | 298° |
| 2026-05-03 20:43 | 23.94950 | 55.25628 | 11007 ft | 280 kts | 298° |
| 2026-05-03 20:43 | 23.95841 | 55.23759 | 10713 ft | 279 kts | 298° |
| 2026-05-03 20:43 | 23.96737 | 55.21869 | 10407 ft | 278 kts | 298° |
| 2026-05-03 20:44 | 23.97609 | 55.20023 | 10222 ft | 272 kts | 298° |
| 2026-05-03 20:44 | 23.98470 | 55.18196 | 10074 ft | 265 kts | 298° |
| 2026-05-03 20:44 | 23.99306 | 55.16417 | 9824 ft | 263 kts | 298° |
| 2026-05-03 20:44 | 24.00135 | 55.14653 | 9560 ft | 261 kts | 297° |
| 2026-05-03 20:45 | 24.00957 | 55.12901 | 9436 ft | 253 kts | 297° |
| 2026-05-03 20:45 | 24.01747 | 55.11218 | 9313 ft | 246 kts | 297° |
| 2026-05-03 20:45 | 24.02514 | 55.09585 | 9099 ft | 242 kts | 297° |
| 2026-05-03 20:45 | 24.03284 | 55.07946 | 8839 ft | 241 kts | 297° |
| 2026-05-03 20:46 | 24.04053 | 55.06312 | 8573 ft | 240 kts | 297° |
| 2026-05-03 20:46 | 24.04811 | 55.04699 | 8312 ft | 239 kts | 297° |
| 2026-05-03 20:46 | 24.05588 | 55.03108 | 8044 ft | 238 kts | 303° |
| 2026-05-03 20:46 | 24.06579 | 55.01646 | 7821 ft | 235 kts | 308° |
| 2026-05-03 20:47 | 24.07581 | 55.00283 | 7689 ft | 229 kts | 308° |
| 2026-05-03 20:47 | 24.08580 | 54.98926 | 7495 ft | 228 kts | 310° |
| 2026-05-03 20:47 | 24.09846 | 54.97915 | 7243 ft | 229 kts | 337° |
| 2026-05-03 20:47 | 24.11411 | 54.97676 | 7019 ft | 234 kts | 2° |
| 2026-05-03 20:48 | 24.12983 | 54.98251 | 6781 ft | 242 kts | 27° |
| 2026-05-03 20:48 | 24.14370 | 54.99318 | 6521 ft | 246 kts | 33° |
| 2026-05-03 20:48 | 24.15779 | 55.00292 | 6234 ft | 236 kts | 12° |
| 2026-05-03 20:48 | 24.17331 | 55.00326 | 5978 ft | 220 kts | 339° |
| 2026-05-03 20:49 | 24.18633 | 54.99587 | 5735 ft | 210 kts | 319° |
| 2026-05-03 20:49 | 24.19632 | 54.98436 | 5498 ft | 204 kts | 308° |
| 2026-05-03 20:49 | 24.20506 | 54.97214 | 5256 ft | 202 kts | 306° |
| 2026-05-03 20:49 | 24.21341 | 54.96011 | 5041 ft | 197 kts | 307° |
| 2026-05-03 20:50 | 24.22162 | 54.94842 | 4821 ft | 191 kts | 307° |
| 2026-05-03 20:50 | 24.22974 | 54.93693 | 4576 ft | 187 kts | 307° |
| 2026-05-03 20:50 | 24.23762 | 54.92584 | 4343 ft | 182 kts | 307° |
| 2026-05-03 20:50 | 24.24532 | 54.91503 | 4139 ft | 180 kts | 308° |
| 2026-05-03 20:51 | 24.25296 | 54.90429 | 3940 ft | 179 kts | 308° |
| 2026-05-03 20:51 | 24.26066 | 54.89349 | 3737 ft | 179 kts | 308° |
| 2026-05-03 20:51 | 24.26838 | 54.88267 | 3533 ft | 179 kts | 308° |
| 2026-05-03 20:51 | 24.27580 | 54.87227 | 3350 ft | 174 kts | 308° |
| 2026-05-03 20:52 | 24.28307 | 54.86209 | 3139 ft | 167 kts | 308° |
| 2026-05-03 20:52 | 24.29029 | 54.85196 | 3041 ft | 170 kts | 308° |
| 2026-05-03 20:52 | 24.29755 | 54.84178 | 2993 ft | 168 kts | 308° |
| 2026-05-03 20:52 | 24.30458 | 54.83191 | 3007 ft | 162 kts | 308° |
| 2026-05-03 20:53 | 24.31150 | 54.82220 | 2974 ft | 156 kts | 308° |
| 2026-05-03 20:53 | 24.31806 | 54.81300 | 2994 ft | 156 kts | 308° |
| 2026-05-03 20:53 | 24.32492 | 54.80337 | 2977 ft | 157 kts | 308° |
| 2026-05-03 20:53 | 24.33163 | 54.79394 | 2971 ft | 157 kts | 308° |
| 2026-05-03 20:54 | 24.33832 | 54.78453 | 2914 ft | 159 kts | 308° |
| 2026-05-03 20:54 | 24.35225 | 54.76496 | 2168 ft | 155 kts | 308° |
| 2026-05-03 20:54 | 24.35873 | 54.75585 | 1952 ft | 151 kts | 308° |
| 2026-05-03 20:55 | 24.36527 | 54.74677 | 1769 ft | 154 kts | 309° |
| 2026-05-03 20:55 | 24.37202 | 54.73737 | 1526 ft | 156 kts | 308° |
| 2026-05-03 20:55 | 24.37863 | 54.72807 | 1263 ft | 155 kts | 308° |
| 2026-05-03 20:55 | 24.38537 | 54.71894 | 1050 ft | 155 kts | 308° |
| 2026-05-03 20:56 | 24.39176 | 54.70963 | 955 ft | 156 kts | 306° |
| 2026-05-03 20:56 | 24.39856 | 54.69987 | 797 ft | 159 kts | 308° |
| 2026-05-03 20:56 | 24.40531 | 54.69028 | 616 ft | 160 kts | 307° |
| 2026-05-03 20:56 | 24.41207 | 54.68073 | 434 ft | 161 kts | 308° |
| 2026-05-03 20:57 | 24.41902 | 54.67076 | 259 ft | 172 kts | 307° |
| 2026-05-03 20:57 | 24.42612 | 54.66110 | 92 ft | 154 kts | 303° |
| 2026-05-03 20:57 | 24.43175 | 54.65303 | 91 ft | 112 kts | 308° |
| 2026-05-03 20:57 | 24.43569 | 54.64751 | 90 ft | 70 kts | 307° |
| 2026-05-03 20:58 | 24.43797 | 54.64431 | 90 ft | 47 kts | 307° |
| 2026-05-03 20:58 | 24.43901 | 54.64213 | 89 ft | 22 kts | 277° |
| 2026-05-03 20:58 | 24.43875 | 54.64092 | 88 ft | 10 kts | 227° |
| 2026-05-03 20:58 | 24.43873 | 54.64090 | 88 ft | 0 kts | 225° |